sensor_id;sensor_type;location;lat;lon;timestamp;temperature;humidity
27795;DHT22;15176;50.844;4.412;2023-07-09T04:04:35;24.60;99.90
27795;DHT22;15176;50.844;4.412;2023-07-09T04:07:04;24.50;99.90
27795;DHT22;15176;50.844;4.412;2023-07-09T04:09:29;24.60;99.90
27795;DHT22;15176;50.844;4.412;2023-07-09T04:11:55;24.70;99.90
27795;DHT22;15176;50.844;4.412;2023-07-09T04:14:21;25.00;99.90
27795;DHT22;15176;50.844;4.412;2023-07-09T04:16:49;25.00;99.90
27795;DHT22;15176;50.844;4.412;2023-07-09T04:19:15;24.80;99.90
27795;DHT22;15176;50.844;4.412;2023-07-09T04:21:41;24.70;99.90
27795;DHT22;15176;50.844;4.412;2023-07-09T04:24:07;24.80;99.90
27795;DHT22;15176;50.844;4.412;2023-07-09T04:26:33;25.10;99.90
27795;DHT22;15176;50.844;4.412;2023-07-09T04:28:59;24.90;99.90
27795;DHT22;15176;50.844;4.412;2023-07-09T04:31:27;24.70;99.90
27795;DHT22;15176;50.844;4.412;2023-07-09T04:33:52;24.70;99.90
27795;DHT22;15176;50.844;4.412;2023-07-09T04:36:21;24.90;99.90
27795;DHT22;15176;50.844;4.412;2023-07-09T04:38:47;25.10;99.90
27795;DHT22;15176;50.844;4.412;2023-07-09T04:41:12;25.10;99.90
27795;DHT22;15176;50.844;4.412;2023-07-09T04:43:38;25.20;99.90
27795;DHT22;15176;50.844;4.412;2023-07-09T04:46:04;25.10;99.90
27795;DHT22;15176;50.844;4.412;2023-07-09T04:48:29;25.10;99.90
27795;DHT22;15176;50.844;4.412;2023-07-09T04:50:55;24.90;99.90
27795;DHT22;15176;50.844;4.412;2023-07-09T04:53:21;25.20;99.90
27795;DHT22;15176;50.844;4.412;2023-07-09T04:55:50;25.20;99.90
27795;DHT22;15176;50.844;4.412;2023-07-09T04:58:16;25.10;99.90
27795;DHT22;15176;50.844;4.412;2023-07-09T05:00:42;25.30;99.90
27795;DHT22;15176;50.844;4.412;2023-07-09T05:03:13;25.30;99.90
27795;DHT22;15176;50.844;4.412;2023-07-09T05:05:46;25.30;99.90
27795;DHT22;15176;50.844;4.412;2023-07-09T05:08:13;25.40;99.90
27795;DHT22;15176;50.844;4.412;2023-07-09T05:10:46;25.30;99.90
27795;DHT22;15176;50.844;4.412;2023-07-09T05:13:12;25.20;99.90
27795;DHT22;15176;50.844;4.412;2023-07-09T05:15:45;25.00;99.90
27795;DHT22;15176;50.844;4.412;2023-07-09T05:18:12;24.90;99.90
27795;DHT22;15176;50.844;4.412;2023-07-09T05:20:39;24.90;99.90
27795;DHT22;15176;50.844;4.412;2023-07-09T05:23:05;25.00;99.90
27795;DHT22;15176;50.844;4.412;2023-07-09T05:25:30;25.00;99.90
27795;DHT22;15176;50.844;4.412;2023-07-09T05:27:56;25.10;99.90
27795;DHT22;15176;50.844;4.412;2023-07-09T05:30:25;25.10;99.90
27795;DHT22;15176;50.844;4.412;2023-07-09T05:32:51;24.90;99.90
27795;DHT22;15176;50.844;4.412;2023-07-09T05:35:21;25.10;99.90
27795;DHT22;15176;50.844;4.412;2023-07-09T05:37:51;25.30;99.90
27795;DHT22;15176;50.844;4.412;2023-07-09T05:40:21;25.50;99.90
27795;DHT22;15176;50.844;4.412;2023-07-09T05:42:48;25.60;99.90
27795;DHT22;15176;50.844;4.412;2023-07-09T05:45:15;25.50;99.90
27795;DHT22;15176;50.844;4.412;2023-07-09T05:47:41;25.60;99.90
27795;DHT22;15176;50.844;4.412;2023-07-09T05:50:07;25.70;99.90
27795;DHT22;15176;50.844;4.412;2023-07-09T05:52:34;25.60;99.90
27795;DHT22;15176;50.844;4.412;2023-07-09T05:54:59;25.60;99.90
27795;DHT22;15176;50.844;4.412;2023-07-09T05:57:26;25.70;99.90
27795;DHT22;15176;50.844;4.412;2023-07-09T05:59:52;25.60;99.90
27795;DHT22;15176;50.844;4.412;2023-07-09T06:02:21;25.80;99.90
27795;DHT22;15176;50.844;4.412;2023-07-09T06:04:47;25.90;99.90
27795;DHT22;15176;50.844;4.412;2023-07-09T06:07:16;25.80;99.90
27795;DHT22;15176;50.844;4.412;2023-07-09T06:09:44;26.10;99.90
27795;DHT22;15176;50.844;4.412;2023-07-09T06:12:12;26.00;99.90
27795;DHT22;15176;50.844;4.412;2023-07-09T06:14:38;26.00;99.90
27795;DHT22;15176;50.844;4.412;2023-07-09T06:17:03;25.90;99.90
27795;DHT22;15176;50.844;4.412;2023-07-09T06:19:29;25.90;99.90
27795;DHT22;15176;50.844;4.412;2023-07-09T06:21:55;26.10;99.90
27795;DHT22;15176;50.844;4.412;2023-07-09T06:24:21;26.10;99.90
27795;DHT22;15176;50.844;4.412;2023-07-09T06:26:47;26.10;99.90
27795;DHT22;15176;50.844;4.412;2023-07-09T06:29:13;26.20;99.90
27795;DHT22;15176;50.844;4.412;2023-07-09T06:31:38;26.10;99.90
27795;DHT22;15176;50.844;4.412;2023-07-09T06:34:06;26.10;99.90
27795;DHT22;15176;50.844;4.412;2023-07-09T06:36:35;26.00;99.90
27795;DHT22;15176;50.844;4.412;2023-07-09T06:39:02;26.00;99.90
27795;DHT22;15176;50.844;4.412;2023-07-09T06:41:28;26.00;99.90
27795;DHT22;15176;50.844;4.412;2023-07-09T06:43:54;26.00;99.90
27795;DHT22;15176;50.844;4.412;2023-07-09T06:46:20;26.10;99.90
27795;DHT22;15176;50.844;4.412;2023-07-09T06:48:46;26.20;99.90
27795;DHT22;15176;50.844;4.412;2023-07-09T06:51:13;26.00;99.90
27795;DHT22;15176;50.844;4.412;2023-07-09T06:53:39;26.00;99.90
27795;DHT22;15176;50.844;4.412;2023-07-09T06:56:07;26.10;99.90
27795;DHT22;15176;50.844;4.412;2023-07-09T06:58:33;26.00;99.90
27795;DHT22;15176;50.844;4.412;2023-07-09T07:01:04;26.30;99.90
27795;DHT22;15176;50.844;4.412;2023-07-09T07:03:31;26.50;99.90
27795;DHT22;15176;50.844;4.412;2023-07-09T07:05:57;26.80;99.90
27795;DHT22;15176;50.844;4.412;2023-07-09T07:08:25;26.90;99.90
27795;DHT22;15176;50.844;4.412;2023-07-09T07:10:57;27.10;99.90
27795;DHT22;15176;50.844;4.412;2023-07-09T07:13:29;27.10;99.90
27795;DHT22;15176;50.844;4.412;2023-07-09T07:15:55;27.40;99.90
27795;DHT22;15176;50.844;4.412;2023-07-09T07:18:21;27.60;99.90
27795;DHT22;15176;50.844;4.412;2023-07-09T07:20:46;27.90;99.90
27795;DHT22;15176;50.844;4.412;2023-07-09T07:23:12;27.90;99.90
27795;DHT22;15176;50.844;4.412;2023-07-09T07:25:38;27.90;99.90
27795;DHT22;15176;50.844;4.412;2023-07-09T07:28:03;28.00;99.90
27795;DHT22;15176;50.844;4.412;2023-07-09T07:30:32;28.00;99.90
27795;DHT22;15176;50.844;4.412;2023-07-09T07:32:58;28.10;99.90
27795;DHT22;15176;50.844;4.412;2023-07-09T07:35:24;28.30;99.90
27795;DHT22;15176;50.844;4.412;2023-07-09T07:37:51;28.30;99.90
27795;DHT22;15176;50.844;4.412;2023-07-09T07:40:17;28.80;99.90
27795;DHT22;15176;50.844;4.412;2023-07-09T07:42:42;28.90;99.90
27795;DHT22;15176;50.844;4.412;2023-07-09T07:45:08;28.90;99.90
27795;DHT22;15176;50.844;4.412;2023-07-09T07:47:34;29.00;99.90
27795;DHT22;15176;50.844;4.412;2023-07-09T07:50:00;29.30;99.90
27795;DHT22;15176;50.844;4.412;2023-07-09T07:52:27;29.30;99.90
27795;DHT22;15176;50.844;4.412;2023-07-09T07:54:52;29.50;99.90
27795;DHT22;15176;50.844;4.412;2023-07-09T07:57:23;29.30;99.90
27795;DHT22;15176;50.844;4.412;2023-07-09T07:59:49;29.40;99.90
27795;DHT22;15176;50.844;4.412;2023-07-09T08:02:15;29.60;99.90
27795;DHT22;15176;50.844;4.412;2023-07-09T08:04:43;29.90;99.90
27795;DHT22;15176;50.844;4.412;2023-07-09T08:07:10;29.80;99.90
27795;DHT22;15176;50.844;4.412;2023-07-09T08:09:36;29.90;99.90
27795;DHT22;15176;50.844;4.412;2023-07-09T08:12:05;30.10;99.90
27795;DHT22;15176;50.844;4.412;2023-07-09T08:14:36;30.00;99.90
27795;DHT22;15176;50.844;4.412;2023-07-09T08:17:02;30.20;99.90
27795;DHT22;15176;50.844;4.412;2023-07-09T08:19:28;30.40;99.90
27795;DHT22;15176;50.844;4.412;2023-07-09T08:21:54;30.20;99.90
27795;DHT22;15176;50.844;4.412;2023-07-09T08:24:19;30.10;99.90
27795;DHT22;15176;50.844;4.412;2023-07-09T08:26:45;30.50;99.90
27795;DHT22;15176;50.844;4.412;2023-07-09T08:29:11;30.90;99.90
27795;DHT22;15176;50.844;4.412;2023-07-09T08:31:37;31.40;99.20
27795;DHT22;15176;50.844;4.412;2023-07-09T08:34:06;31.60;98.10
27795;DHT22;15176;50.844;4.412;2023-07-09T08:36:33;31.80;96.50
27795;DHT22;15176;50.844;4.412;2023-07-09T08:39:02;31.30;96.50
27795;DHT22;15176;50.844;4.412;2023-07-09T08:41:39;31.30;96.30
27795;DHT22;15176;50.844;4.412;2023-07-09T08:52:29;31.90;93.10
27795;DHT22;15176;50.844;4.412;2023-07-09T08:54:58;32.20;92.00
27795;DHT22;15176;50.844;4.412;2023-07-09T08:57:30;32.10;91.00
27795;DHT22;15176;50.844;4.412;2023-07-09T09:00:07;32.40;90.90
27795;DHT22;15176;50.844;4.412;2023-07-09T09:02:57;32.20;90.10
27795;DHT22;15176;50.844;4.412;2023-07-09T09:05:25;32.40;90.00
27795;DHT22;15176;50.844;4.412;2023-07-09T09:08:11;32.40;90.20
27795;DHT22;15176;50.844;4.412;2023-07-09T09:10:46;32.50;89.30
27795;DHT22;15176;50.844;4.412;2023-07-09T09:13:15;32.80;88.50
27795;DHT22;15176;50.844;4.412;2023-07-09T09:15:44;33.00;86.70
27795;DHT22;15176;50.844;4.412;2023-07-09T09:18:39;32.60;85.00
27795;DHT22;15176;50.844;4.412;2023-07-09T09:23:50;33.10;82.70
27795;DHT22;15176;50.844;4.412;2023-07-09T09:26:25;33.20;84.40
27795;DHT22;15176;50.844;4.412;2023-07-09T09:28:52;33.40;82.80
27795;DHT22;15176;50.844;4.412;2023-07-09T09:31:18;33.30;82.90
27795;DHT22;15176;50.844;4.412;2023-07-09T09:33:48;33.30;82.60
27795;DHT22;15176;50.844;4.412;2023-07-09T09:36:25;33.70;81.80
27795;DHT22;15176;50.844;4.412;2023-07-09T09:38:51;33.80;81.20
27795;DHT22;15176;50.844;4.412;2023-07-09T09:41:20;33.80;79.50
27795;DHT22;15176;50.844;4.412;2023-07-09T09:43:48;33.70;80.20
27795;DHT22;15176;50.844;4.412;2023-07-09T09:46:22;34.00;80.60
27795;DHT22;15176;50.844;4.412;2023-07-09T09:48:49;34.30;79.40
27795;DHT22;15176;50.844;4.412;2023-07-09T09:51:17;34.40;79.70
27795;DHT22;15176;50.844;4.412;2023-07-09T09:53:51;34.90;79.10
27795;DHT22;15176;50.844;4.412;2023-07-09T09:56:23;35.20;73.90
27795;DHT22;15176;50.844;4.412;2023-07-09T09:58:53;34.80;75.10
27795;DHT22;15176;50.844;4.412;2023-07-09T10:01:22;34.20;76.70
27795;DHT22;15176;50.844;4.412;2023-07-09T10:03:54;33.90;80.20
27795;DHT22;15176;50.844;4.412;2023-07-09T10:09:00;34.10;79.90
27795;DHT22;15176;50.844;4.412;2023-07-09T10:11:57;34.40;78.30
27795;DHT22;15176;50.844;4.412;2023-07-09T10:17:28;34.40;78.50
27795;DHT22;15176;50.844;4.412;2023-07-09T10:20:25;34.50;78.40
27795;DHT22;15176;50.844;4.412;2023-07-09T10:23:22;34.20;78.30
27795;DHT22;15176;50.844;4.412;2023-07-09T10:26:20;34.00;80.10
27795;DHT22;15176;50.844;4.412;2023-07-09T10:31:55;33.70;81.70
27795;DHT22;15176;50.844;4.412;2023-07-09T10:34:52;33.20;83.20
27795;DHT22;15176;50.844;4.412;2023-07-09T10:40:33;32.80;84.30
27795;DHT22;15176;50.844;4.412;2023-07-09T10:43:03;33.00;84.60
27795;DHT22;15176;50.844;4.412;2023-07-09T10:46:02;32.80;86.30
27795;DHT22;15176;50.844;4.412;2023-07-09T10:48:41;32.00;88.80
27795;DHT22;15176;50.844;4.412;2023-07-09T10:54:02;31.90;90.20
27795;DHT22;15176;50.844;4.412;2023-07-09T10:56:34;31.50;90.90
27795;DHT22;15176;50.844;4.412;2023-07-09T11:01:54;30.90;91.80
27795;DHT22;15176;50.844;4.412;2023-07-09T11:06:48;30.30;93.60
27795;DHT22;15176;50.844;4.412;2023-07-09T11:09:25;30.40;94.10
27795;DHT22;15176;50.844;4.412;2023-07-09T11:11:56;30.50;94.60
27795;DHT22;15176;50.844;4.412;2023-07-09T11:14:36;30.60;94.00
27795;DHT22;15176;50.844;4.412;2023-07-09T11:17:04;30.40;94.00
27795;DHT22;15176;50.844;4.412;2023-07-09T11:19:42;30.10;95.20
27795;DHT22;15176;50.844;4.412;2023-07-09T11:22:22;30.30;95.20
27795;DHT22;15176;50.844;4.412;2023-07-09T11:24:53;30.30;94.90
27795;DHT22;15176;50.844;4.412;2023-07-09T11:27:30;30.20;95.20
27795;DHT22;15176;50.844;4.412;2023-07-09T11:32:47;29.80;95.70
27795;DHT22;15176;50.844;4.412;2023-07-09T11:35:24;29.70;96.40
27795;DHT22;15176;50.844;4.412;2023-07-09T11:37:51;29.60;96.30
27795;DHT22;15176;50.844;4.412;2023-07-09T11:40:19;29.70;96.30
27795;DHT22;15176;50.844;4.412;2023-07-09T11:42:52;29.40;96.50
27795;DHT22;15176;50.844;4.412;2023-07-09T11:45:28;29.40;97.10
27795;DHT22;15176;50.844;4.412;2023-07-09T11:48:25;28.80;97.80
27795;DHT22;15176;50.844;4.412;2023-07-09T11:50:52;28.80;98.60
27795;DHT22;15176;50.844;4.412;2023-07-09T11:53:44;28.70;99.00
27795;DHT22;15176;50.844;4.412;2023-07-09T11:56:12;28.90;98.90
27795;DHT22;15176;50.844;4.412;2023-07-09T11:58:48;28.40;99.80
27795;DHT22;15176;50.844;4.412;2023-07-09T12:01:16;28.50;99.80
27795;DHT22;15176;50.844;4.412;2023-07-09T12:03:47;28.30;99.90
27795;DHT22;15176;50.844;4.412;2023-07-09T12:06:26;28.20;99.90
27795;DHT22;15176;50.844;4.412;2023-07-09T12:08:55;28.00;99.90
27795;DHT22;15176;50.844;4.412;2023-07-09T12:11:24;27.80;99.90
27795;DHT22;15176;50.844;4.412;2023-07-09T12:13:51;27.80;99.90
27795;DHT22;15176;50.844;4.412;2023-07-09T12:16:38;27.90;99.90
27795;DHT22;15176;50.844;4.412;2023-07-09T12:19:05;28.20;99.90
27795;DHT22;15176;50.844;4.412;2023-07-09T12:21:37;28.30;99.90
27795;DHT22;15176;50.844;4.412;2023-07-09T12:26:53;28.00;99.90
27795;DHT22;15176;50.844;4.412;2023-07-09T12:29:19;27.90;99.90
27795;DHT22;15176;50.844;4.412;2023-07-09T12:31:45;28.00;99.90
27795;DHT22;15176;50.844;4.412;2023-07-09T12:34:14;27.40;99.90
27795;DHT22;15176;50.844;4.412;2023-07-09T12:36:45;26.90;99.90
27795;DHT22;15176;50.844;4.412;2023-07-09T12:39:13;26.30;99.90
27795;DHT22;15176;50.844;4.412;2023-07-09T12:41:44;25.90;99.90
27795;DHT22;15176;50.844;4.412;2023-07-09T12:44:22;25.60;99.90
27795;DHT22;15176;50.844;4.412;2023-07-09T12:46:50;25.60;99.90
27795;DHT22;15176;50.844;4.412;2023-07-09T12:49:24;25.60;99.90
27795;DHT22;15176;50.844;4.412;2023-07-09T12:52:00;25.80;99.90
27795;DHT22;15176;50.844;4.412;2023-07-09T12:54:28;25.80;99.90
27795;DHT22;15176;50.844;4.412;2023-07-09T12:56:56;26.10;99.90
27795;DHT22;15176;50.844;4.412;2023-07-09T12:59:37;26.20;99.90
27795;DHT22;15176;50.844;4.412;2023-07-09T13:02:28;26.30;99.90
27795;DHT22;15176;50.844;4.412;2023-07-09T13:05:04;26.30;99.90
27795;DHT22;15176;50.844;4.412;2023-07-09T13:07:37;26.50;99.90
27795;DHT22;15176;50.844;4.412;2023-07-09T13:10:22;26.60;99.90
27795;DHT22;15176;50.844;4.412;2023-07-09T13:12:53;26.70;99.90
27795;DHT22;15176;50.844;4.412;2023-07-09T13:15:26;26.60;99.90
27795;DHT22;15176;50.844;4.412;2023-07-09T13:18:02;26.70;99.90
27795;DHT22;15176;50.844;4.412;2023-07-09T13:20:33;27.00;99.90
27795;DHT22;15176;50.844;4.412;2023-07-09T13:23:00;27.10;99.90
27795;DHT22;15176;50.844;4.412;2023-07-09T13:25:26;26.90;99.90
27795;DHT22;15176;50.844;4.412;2023-07-09T13:27:54;27.10;99.90
27795;DHT22;15176;50.844;4.412;2023-07-09T13:30:20;27.20;99.90
27795;DHT22;15176;50.844;4.412;2023-07-09T13:32:48;26.90;99.90
27795;DHT22;15176;50.844;4.412;2023-07-09T13:35:16;27.00;99.90
27795;DHT22;15176;50.844;4.412;2023-07-09T13:37:43;27.10;99.90
27795;DHT22;15176;50.844;4.412;2023-07-09T13:40:16;26.60;99.90
27795;DHT22;15176;50.844;4.412;2023-07-09T13:42:43;26.50;99.90
27795;DHT22;15176;50.844;4.412;2023-07-09T13:45:18;26.20;99.90
27795;DHT22;15176;50.844;4.412;2023-07-09T13:47:45;26.30;99.90
27795;DHT22;15176;50.844;4.412;2023-07-09T13:50:12;26.50;99.90
27795;DHT22;15176;50.844;4.412;2023-07-09T13:52:39;26.50;99.90
27795;DHT22;15176;50.844;4.412;2023-07-09T13:55:14;26.80;99.90
27795;DHT22;15176;50.844;4.412;2023-07-09T13:57:42;27.00;99.90
27795;DHT22;15176;50.844;4.412;2023-07-09T14:00:11;27.20;99.90
27795;DHT22;15176;50.844;4.412;2023-07-09T14:02:38;27.20;99.90
27795;DHT22;15176;50.844;4.412;2023-07-09T14:05:06;27.30;99.90
27795;DHT22;15176;50.844;4.412;2023-07-09T14:07:34;27.40;99.90
27795;DHT22;15176;50.844;4.412;2023-07-09T14:10:09;27.50;99.90
27795;DHT22;15176;50.844;4.412;2023-07-09T14:12:38;27.20;99.90
27795;DHT22;15176;50.844;4.412;2023-07-09T14:15:15;27.30;99.90
27795;DHT22;15176;50.844;4.412;2023-07-09T14:17:43;27.70;99.90
27795;DHT22;15176;50.844;4.412;2023-07-09T14:20:14;28.00;99.90
27795;DHT22;15176;50.844;4.412;2023-07-09T14:22:41;28.20;99.90
27795;DHT22;15176;50.844;4.412;2023-07-09T14:25:20;28.30;99.90
27795;DHT22;15176;50.844;4.412;2023-07-09T14:27:49;28.00;99.90
27795;DHT22;15176;50.844;4.412;2023-07-09T14:30:18;28.30;99.90
27795;DHT22;15176;50.844;4.412;2023-07-09T14:32:45;28.10;99.90
27795;DHT22;15176;50.844;4.412;2023-07-09T14:35:18;28.10;99.90
27795;DHT22;15176;50.844;4.412;2023-07-09T14:37:45;28.60;99.90
27795;DHT22;15176;50.844;4.412;2023-07-09T14:40:12;28.90;99.90
27795;DHT22;15176;50.844;4.412;2023-07-09T14:42:39;28.90;99.90
27795;DHT22;15176;50.844;4.412;2023-07-09T14:45:24;28.80;99.90
27795;DHT22;15176;50.844;4.412;2023-07-09T14:47:52;28.90;99.90
27795;DHT22;15176;50.844;4.412;2023-07-09T14:50:18;28.90;99.90
27795;DHT22;15176;50.844;4.412;2023-07-09T14:52:46;29.10;99.90
27795;DHT22;15176;50.844;4.412;2023-07-09T14:55:19;29.00;99.90
27795;DHT22;15176;50.844;4.412;2023-07-09T14:57:45;29.00;99.90
27795;DHT22;15176;50.844;4.412;2023-07-09T15:00:20;28.80;99.90
27795;DHT22;15176;50.844;4.412;2023-07-09T15:02:49;28.40;99.90
27795;DHT22;15176;50.844;4.412;2023-07-09T15:05:22;28.50;99.90
27795;DHT22;15176;50.844;4.412;2023-07-09T15:07:48;28.40;99.90
27795;DHT22;15176;50.844;4.412;2023-07-09T15:10:16;28.10;99.90
27795;DHT22;15176;50.844;4.412;2023-07-09T15:12:43;28.30;99.90
27795;DHT22;15176;50.844;4.412;2023-07-09T15:15:23;28.40;99.90
27795;DHT22;15176;50.844;4.412;2023-07-09T15:17:50;28.50;99.90
27795;DHT22;15176;50.844;4.412;2023-07-09T15:20:35;28.60;99.90
27795;DHT22;15176;50.844;4.412;2023-07-09T15:23:02;28.70;99.90
27795;DHT22;15176;50.844;4.412;2023-07-09T15:25:29;28.70;99.90
27795;DHT22;15176;50.844;4.412;2023-07-09T15:27:57;28.80;99.90
27795;DHT22;15176;50.844;4.412;2023-07-09T15:30:25;28.80;99.90
27795;DHT22;15176;50.844;4.412;2023-07-09T15:32:51;29.00;99.90
27795;DHT22;15176;50.844;4.412;2023-07-09T15:35:19;29.20;99.90
27795;DHT22;15176;50.844;4.412;2023-07-09T15:37:46;29.40;99.90
27795;DHT22;15176;50.844;4.412;2023-07-09T15:40:20;29.30;99.90
27795;DHT22;15176;50.844;4.412;2023-07-09T15:42:48;29.40;99.90
27795;DHT22;15176;50.844;4.412;2023-07-09T15:45:16;29.60;99.90
27795;DHT22;15176;50.844;4.412;2023-07-09T15:47:44;29.70;99.90
27795;DHT22;15176;50.844;4.412;2023-07-09T15:50:31;29.70;99.90
27795;DHT22;15176;50.844;4.412;2023-07-09T15:52:59;29.30;99.90
27795;DHT22;15176;50.844;4.412;2023-07-09T15:55:26;28.90;99.90
27795;DHT22;15176;50.844;4.412;2023-07-09T15:57:54;28.90;99.90
27795;DHT22;15176;50.844;4.412;2023-07-09T16:00:24;29.00;99.90
27795;DHT22;15176;50.844;4.412;2023-07-09T16:02:51;29.00;99.90
27795;DHT22;15176;50.844;4.412;2023-07-09T16:05:28;29.00;99.90
27795;DHT22;15176;50.844;4.412;2023-07-09T16:07:58;28.80;99.90
27795;DHT22;15176;50.844;4.412;2023-07-09T16:10:26;28.90;99.90
27795;DHT22;15176;50.844;4.412;2023-07-09T16:12:53;28.80;99.90
27795;DHT22;15176;50.844;4.412;2023-07-09T16:15:21;28.70;99.90
27795;DHT22;15176;50.844;4.412;2023-07-09T16:17:48;28.50;99.90
27795;DHT22;15176;50.844;4.412;2023-07-09T16:20:16;28.10;99.90
27795;DHT22;15176;50.844;4.412;2023-07-09T16:22:44;28.00;99.90
27795;DHT22;15176;50.844;4.412;2023-07-09T16:27:41;28.20;99.90
27795;DHT22;15176;50.844;4.412;2023-07-09T16:30:20;27.90;99.90
27795;DHT22;15176;50.844;4.412;2023-07-09T16:32:46;27.80;99.90
27795;DHT22;15176;50.844;4.412;2023-07-09T16:35:13;27.50;99.90
27795;DHT22;15176;50.844;4.412;2023-07-09T16:37:40;27.50;99.90
27795;DHT22;15176;50.844;4.412;2023-07-09T16:40:28;27.30;99.90
27795;DHT22;15176;50.844;4.412;2023-07-09T16:42:57;27.10;99.90
27795;DHT22;15176;50.844;4.412;2023-07-09T16:45:25;27.20;99.90
27795;DHT22;15176;50.844;4.412;2023-07-09T16:47:52;27.40;99.90
27795;DHT22;15176;50.844;4.412;2023-07-09T16:50:23;27.30;99.90
27795;DHT22;15176;50.844;4.412;2023-07-09T16:52:50;26.90;99.90
27795;DHT22;15176;50.844;4.412;2023-07-09T16:55:24;26.90;99.90
27795;DHT22;15176;50.844;4.412;2023-07-09T16:57:58;26.80;99.90
27795;DHT22;15176;50.844;4.412;2023-07-09T17:00:28;26.50;99.90
27795;DHT22;15176;50.844;4.412;2023-07-09T17:03:05;26.30;99.90
27795;DHT22;15176;50.844;4.412;2023-07-09T17:05:31;26.50;99.90
27795;DHT22;15176;50.844;4.412;2023-07-09T17:07:57;26.50;99.90
27795;DHT22;15176;50.844;4.412;2023-07-09T17:10:23;26.30;99.90
27795;DHT22;15176;50.844;4.412;2023-07-09T17:13:23;25.80;99.90
27795;DHT22;15176;50.844;4.412;2023-07-09T17:15:53;25.70;99.90
27795;DHT22;15176;50.844;4.412;2023-07-09T17:18:30;25.60;99.90
27795;DHT22;15176;50.844;4.412;2023-07-09T17:20:59;25.40;99.90
27795;DHT22;15176;50.844;4.412;2023-07-09T17:23:31;25.60;99.90
27795;DHT22;15176;50.844;4.412;2023-07-09T17:26:02;25.40;99.90
27795;DHT22;15176;50.844;4.412;2023-07-09T17:28:31;25.40;99.90
27795;DHT22;15176;50.844;4.412;2023-07-09T17:31:00;25.10;99.90
27795;DHT22;15176;50.844;4.412;2023-07-09T17:33:26;25.00;99.90
27795;DHT22;15176;50.844;4.412;2023-07-09T17:35:53;25.00;99.90
27795;DHT22;15176;50.844;4.412;2023-07-09T17:38:24;25.20;99.90
27795;DHT22;15176;50.844;4.412;2023-07-09T17:40:52;25.10;99.90
27795;DHT22;15176;50.844;4.412;2023-07-09T17:43:20;25.10;99.90
27795;DHT22;15176;50.844;4.412;2023-07-09T17:45:46;25.10;99.90
27795;DHT22;15176;50.844;4.412;2023-07-09T17:48:18;25.00;99.90
27795;DHT22;15176;50.844;4.412;2023-07-09T17:50:45;25.10;99.90
27795;DHT22;15176;50.844;4.412;2023-07-09T17:53:50;25.00;99.90
27795;DHT22;15176;50.844;4.412;2023-07-09T17:56:20;24.70;99.90
27795;DHT22;15176;50.844;4.412;2023-07-09T17:58:47;24.70;99.90
27795;DHT22;15176;50.844;4.412;2023-07-09T18:01:13;24.80;99.90
27795;DHT22;15176;50.844;4.412;2023-07-09T18:03:39;24.80;99.90
27795;DHT22;15176;50.844;4.412;2023-07-09T18:06:05;24.70;99.90
27795;DHT22;15176;50.844;4.412;2023-07-09T18:08:32;24.90;99.90
27795;DHT22;15176;50.844;4.412;2023-07-09T18:10:58;25.00;99.90
27795;DHT22;15176;50.844;4.412;2023-07-09T18:13:26;24.80;99.90
27795;DHT22;15176;50.844;4.412;2023-07-09T18:15:54;25.00;99.90
27795;DHT22;15176;50.844;4.412;2023-07-09T18:18:20;25.10;99.90
27795;DHT22;15176;50.844;4.412;2023-07-09T18:20:46;25.30;99.90
27795;DHT22;15176;50.844;4.412;2023-07-09T18:23:12;25.20;99.90
27795;DHT22;15176;50.844;4.412;2023-07-09T18:25:41;25.20;99.90
27795;DHT22;15176;50.844;4.412;2023-07-09T18:28:18;25.40;99.90
27795;DHT22;15176;50.844;4.412;2023-07-09T18:30:44;25.10;99.90
27795;DHT22;15176;50.844;4.412;2023-07-09T18:33:10;25.10;99.90
27795;DHT22;15176;50.844;4.412;2023-07-09T18:35:37;25.20;99.90
27795;DHT22;15176;50.844;4.412;2023-07-09T18:38:06;25.00;99.90
27795;DHT22;15176;50.844;4.412;2023-07-09T18:40:44;25.00;99.90
27795;DHT22;15176;50.844;4.412;2023-07-09T18:43:13;24.90;99.90
27795;DHT22;15176;50.844;4.412;2023-07-09T18:45:40;24.90;99.90
27795;DHT22;15176;50.844;4.412;2023-07-09T18:48:14;24.50;99.90
27795;DHT22;15176;50.844;4.412;2023-07-09T18:50:40;24.30;99.90
27795;DHT22;15176;50.844;4.412;2023-07-09T18:53:11;24.50;99.90
27795;DHT22;15176;50.844;4.412;2023-07-09T18:55:37;24.50;99.90
27795;DHT22;15176;50.844;4.412;2023-07-09T18:58:13;24.50;99.90
27795;DHT22;15176;50.844;4.412;2023-07-09T19:00:39;24.50;99.90
27795;DHT22;15176;50.844;4.412;2023-07-09T19:03:13;24.50;99.90
27795;DHT22;15176;50.844;4.412;2023-07-09T19:05:57;24.20;99.90
27795;DHT22;15176;50.844;4.412;2023-07-09T19:08:26;24.10;99.90
27795;DHT22;15176;50.844;4.412;2023-07-09T19:10:53;24.00;99.90
27795;DHT22;15176;50.844;4.412;2023-07-09T19:13:19;24.30;99.90
27795;DHT22;15176;50.844;4.412;2023-07-09T19:15:48;24.20;99.90
27795;DHT22;15176;50.844;4.412;2023-07-09T19:18:25;24.30;99.90
27795;DHT22;15176;50.844;4.412;2023-07-09T19:20:54;24.30;99.90
27795;DHT22;15176;50.844;4.412;2023-07-09T19:23:20;24.30;99.90
27795;DHT22;15176;50.844;4.412;2023-07-09T19:25:47;24.10;99.90
27795;DHT22;15176;50.844;4.412;2023-07-09T19:28:15;24.00;99.90
27795;DHT22;15176;50.844;4.412;2023-07-09T19:30:42;23.90;99.90
27795;DHT22;15176;50.844;4.412;2023-07-09T19:33:17;23.90;99.90
27795;DHT22;15176;50.844;4.412;2023-07-09T19:35:47;23.80;99.90
27795;DHT22;15176;50.844;4.412;2023-07-09T19:38:16;23.80;99.90
27795;DHT22;15176;50.844;4.412;2023-07-09T19:40:42;23.70;99.90
27795;DHT22;15176;50.844;4.412;2023-07-09T19:43:11;23.80;99.90
27795;DHT22;15176;50.844;4.412;2023-07-09T19:45:38;23.80;99.90
27795;DHT22;15176;50.844;4.412;2023-07-09T19:48:20;23.90;99.90
27795;DHT22;15176;50.844;4.412;2023-07-09T19:50:47;24.10;99.90
27795;DHT22;15176;50.844;4.412;2023-07-09T19:53:20;23.80;99.90
27795;DHT22;15176;50.844;4.412;2023-07-09T19:55:47;23.70;99.90
27795;DHT22;15176;50.844;4.412;2023-07-09T19:58:13;23.70;99.90
27795;DHT22;15176;50.844;4.412;2023-07-09T20:00:39;23.70;99.90
27795;DHT22;15176;50.844;4.412;2023-07-09T20:03:12;23.70;99.90
27795;DHT22;15176;50.844;4.412;2023-07-09T20:05:44;23.70;99.90
27795;DHT22;15176;50.844;4.412;2023-07-09T20:08:14;23.60;99.90
27795;DHT22;15176;50.844;4.412;2023-07-09T20:10:41;23.30;99.90
27795;DHT22;15176;50.844;4.412;2023-07-09T20:13:13;23.30;99.90
27795;DHT22;15176;50.844;4.412;2023-07-09T20:15:40;23.40;99.90
27795;DHT22;15176;50.844;4.412;2023-07-09T20:18:14;23.50;99.90
27795;DHT22;15176;50.844;4.412;2023-07-09T20:20:47;23.60;99.90
27795;DHT22;15176;50.844;4.412;2023-07-09T20:23:17;23.70;99.90
27795;DHT22;15176;50.844;4.412;2023-07-09T20:25:44;23.70;99.90
27795;DHT22;15176;50.844;4.412;2023-07-09T20:28:20;23.70;99.90
27795;DHT22;15176;50.844;4.412;2023-07-09T20:30:49;23.80;99.90